Time;durP1;ratioP1;P1;durP2;ratioP2;P2;SDS_P1;SDS_P2;PMS_P1;PMS_P2;Temp;Humidity;BMP_temperature;BMP_pressure;BME280_temperature;BME280_humidity;BME280_pressure;Samples;Min_cycle;Max_cycle;Signal;HPM_P1;HPM_P2
2022/07/30 00:00:23;;;;;;;2.70;2.50;;;;;25.30;100610.00;;;;2087356;28;20302;-52
2022/07/30 00:01:23;;;;;;;2.87;2.57;;;;;25.30;100607.00;;;;2087290;28;20209;-53
2022/07/30 00:02:24;;;;;;;2.70;2.50;;;;;25.30;100608.00;;;;2087352;28;20565;-53
2022/07/30 00:03:26;;;;;;;2.80;2.50;;;;;25.30;100605.00;;;;2086821;28;20216;-52
2022/07/30 00:04:26;;;;;;;2.22;2.10;;;;;25.30;100604.00;;;;2087205;28;20213;-53
2022/07/30 00:05:27;;;;;;;3.67;2.50;;;;;25.30;100603.00;;;;2083192;28;20215;-53
2022/07/30 00:06:27;;;;;;;2.73;2.53;;;;;25.30;100609.00;;;;2079102;28;20221;-52
2022/07/30 00:07:27;;;;;;;3.27;2.60;;;;;25.30;100601.00;;;;2078242;28;20229;-52
2022/07/30 00:08:27;;;;;;;3.70;2.77;;;;;25.30;100600.00;;;;2078818;28;20244;-52
2022/07/30 00:09:28;;;;;;;2.73;2.53;;;;;25.30;100598.00;;;;2078860;28;20218;-53
2022/07/30 00:10:28;;;;;;;3.53;2.73;;;;;25.30;100599.00;;;;2078958;28;20213;-53
2022/07/30 00:11:28;;;;;;;2.80;2.60;;;;;25.30;100593.00;;;;2079123;28;20221;-57
2022/07/30 00:12:29;;;;;;;3.27;2.97;;;;;25.30;100587.00;;;;2079118;28;20256;-52
2022/07/30 00:13:29;;;;;;;3.60;3.30;;;;;25.30;100599.00;;;;2079209;28;20210;-53
2022/07/30 00:14:31;;;;;;;2.73;2.53;;;;;25.30;100606.00;;;;2078852;28;20219;-53
2022/07/30 00:15:31;;;;;;;3.50;3.20;;;;;25.30;100603.00;;;;2078991;28;20209;-53
2022/07/30 00:16:31;;;;;;;2.67;2.47;;;;;25.30;100590.00;;;;2078835;28;20293;-53
2022/07/30 00:17:32;;;;;;;3.23;2.93;;;;;25.30;100593.00;;;;2077338;28;20213;-53
2022/07/30 00:18:32;;;;;;;2.83;2.63;;;;;25.30;100597.00;;;;2078085;28;20251;-52
2022/07/30 00:19:32;;;;;;;3.20;2.90;;;;;25.30;100589.00;;;;2078812;28;20201;-53
2022/07/30 00:20:33;;;;;;;3.20;2.90;;;;;25.30;100593.00;;;;2078899;28;20202;-53
2022/07/30 00:21:33;;;;;;;2.77;2.57;;;;;25.30;100589.00;;;;2079134;28;20212;-53
2022/07/30 00:22:33;;;;;;;3.47;2.80;;;;;25.30;100596.00;;;;2079031;28;20248;-53
2022/07/30 00:23:34;;;;;;;2.90;2.70;;;;;25.30;100587.00;;;;2078988;28;20230;-53
2022/07/30 00:24:34;;;;;;;2.70;2.47;;;;;25.30;100593.00;;;;2078860;28;20205;-52
2022/07/30 00:25:35;;;;;;;2.67;2.47;;;;;25.30;100588.00;;;;2078860;28;20213;-52
2022/07/30 00:26:35;;;;;;;3.43;3.13;;;;;25.30;100592.00;;;;2079010;28;20213;-53
2022/07/30 00:27:35;;;;;;;3.03;2.83;;;;;25.30;100592.00;;;;2078192;28;20229;-52
2022/07/30 00:28:36;;;;;;;3.17;2.93;;;;;25.30;100586.00;;;;2078896;28;20205;-52
2022/07/30 00:29:36;;;;;;;3.13;2.83;;;;;25.30;100593.00;;;;2078527;28;20796;-53
2022/07/30 00:30:37;;;;;;;3.23;2.93;;;;;25.30;100576.00;;;;2078803;28;20686;-52
2022/07/30 00:31:37;;;;;;;3.30;3.00;;;;;25.30;100580.00;;;;2083541;28;20581;-52
2022/07/30 00:32:38;;;;;;;2.87;2.67;;;;;25.30;100587.00;;;;2086825;28;20227;-52
2022/07/30 00:33:38;;;;;;;2.70;2.50;;;;;25.30;100586.00;;;;2087127;28;20648;-52
2022/07/30 00:34:38;;;;;;;2.53;2.33;;;;;25.30;100589.00;;;;2087131;28;20938;-52
2022/07/30 00:35:39;;;;;;;3.10;2.80;;;;;25.30;100608.00;;;;2087007;28;20701;-53
2022/07/30 00:36:39;;;;;;;2.60;2.40;;;;;25.30;100582.00;;;;2083466;28;20592;-52
2022/07/30 00:37:39;;;;;;;3.63;3.33;;;;;25.30;100593.00;;;;2085654;28;20554;-53
2022/07/30 00:38:40;;;;;;;2.97;2.77;;;;;25.30;100590.00;;;;2086919;28;20205;-53
2022/07/30 00:39:40;;;;;;;2.73;2.53;;;;;25.30;100597.00;;;;2086886;28;20227;-53
2022/07/30 00:40:40;;;;;;;2.70;2.50;;;;;25.30;100602.00;;;;2085865;28;20221;-52
2022/07/30 00:42:13;;;;;;;2.73;2.53;;;;;25.30;100597.00;;;;2085604;28;20220;-53
2022/07/30 00:43:16;;;;;;;3.03;2.83;;;;;25.30;100598.00;;;;2073541;28;20221;-53
2022/07/30 00:44:17;;;;;;;3.17;2.88;;;;;25.30;100592.00;;;;2075797;28;20283;-52
2022/07/30 00:45:17;;;;;;;2.70;2.50;;;;;25.30;100591.00;;;;2078134;28;20209;-52
2022/07/30 00:46:17;;;;;;;3.20;2.73;;;;;25.30;100588.00;;;;2086980;28;20209;-52
2022/07/30 00:47:18;;;;;;;3.10;2.80;;;;;25.30;100591.00;;;;2086111;28;20824;-52
2022/07/30 00:48:18;;;;;;;2.77;2.57;;;;;25.30;100590.00;;;;2086493;28;20232;-52
2022/07/30 00:49:19;;;;;;;2.57;2.37;;;;;25.30;100592.00;;;;2086933;28;20625;-53
2022/07/30 00:50:20;;;;;;;3.67;2.80;;;;;25.20;100590.00;;;;2078079;28;20220;-52
2022/07/30 00:51:20;;;;;;;2.80;2.60;;;;;25.30;100594.00;;;;2072841;28;20590;-52
2022/07/30 00:52:21;;;;;;;2.70;2.50;;;;;25.20;100592.00;;;;2086121;28;20224;-52
2022/07/30 00:53:21;;;;;;;3.20;2.90;;;;;25.30;100588.00;;;;2086925;28;20221;-52
2022/07/30 00:54:21;;;;;;;2.93;2.73;;;;;25.30;100589.00;;;;2086915;28;20239;-52
2022/07/30 00:55:22;;;;;;;2.93;2.73;;;;;25.30;100567.00;;;;2086940;28;20302;-52
2022/07/30 00:56:22;;;;;;;2.70;2.50;;;;;25.20;100603.00;;;;2086708;28;20208;-52
2022/07/30 00:57:22;;;;;;;3.03;2.83;;;;;25.20;100593.00;;;;2084988;28;20729;-52
2022/07/30 00:58:23;;;;;;;3.10;2.90;;;;;25.20;100590.00;;;;2086757;28;20299;-52
2022/07/30 00:59:23;;;;;;;2.70;2.50;;;;;25.30;100583.00;;;;2086963;28;20707;-52
2022/07/30 01:00:24;;;;;;;2.80;2.60;;;;;25.20;100586.00;;;;2086804;28;20220;-52
2022/07/30 01:01:25;;;;;;;4.22;2.38;;;;;25.20;100582.00;;;;2086793;28;20212;-52
2022/07/30 01:02:25;;;;;;;2.90;2.70;;;;;25.20;100586.00;;;;2086690;28;20580;-53
2022/07/30 01:03:25;;;;;;;2.80;2.60;;;;;25.20;100588.00;;;;2086881;28;20335;-52
2022/07/30 01:04:26;;;;;;;3.17;2.87;;;;;25.20;100571.00;;;;2079156;28;20210;-52
2022/07/30 01:05:26;;;;;;;2.83;2.53;;;;;25.20;100577.00;;;;2079189;28;20209;-52
2022/07/30 01:06:26;;;;;;;2.70;2.50;;;;;25.20;100578.00;;;;2086707;28;20204;-52
2022/07/30 01:07:27;;;;;;;3.17;2.97;;;;;25.20;100579.00;;;;2085983;28;20220;-52
2022/07/30 01:08:27;;;;;;;3.00;2.73;;;;;25.20;100583.00;;;;2086597;28;20212;-53
2022/07/30 01:09:27;;;;;;;3.23;2.93;;;;;25.20;100589.00;;;;2087017;28;20209;-52
2022/07/30 01:10:28;;;;;;;3.13;2.77;;;;;25.20;100586.00;;;;2086439;28;20292;-52
2022/07/30 01:11:33;;;;;;;2.57;2.37;;;;;25.20;100596.00;;;;2080325;28;20275;-52
2022/07/30 01:12:33;;;;;;;2.65;2.45;;;;;25.20;100591.00;;;;2078248;28;20206;-53
2022/07/30 01:13:34;;;;;;;3.10;2.80;;;;;25.20;100577.00;;;;2086024;28;20236;-53
2022/07/30 01:14:34;;;;;;;2.63;2.43;;;;;25.20;100582.00;;;;2086807;28;20217;-53
2022/07/30 01:15:35;;;;;;;2.50;2.30;;;;;25.20;100578.00;;;;2086570;28;20224;-55
2022/07/30 01:16:35;;;;;;;2.50;2.30;;;;;25.20;100559.00;;;;2086395;28;20216;-53
2022/07/30 01:17:36;;;;;;;3.00;2.80;;;;;25.20;100586.00;;;;2084875;28;20220;-53
2022/07/30 01:19:58;;;;;;;3.05;2.85;;;;;25.20;100592.00;;;;2086518;28;20277;-52
2022/07/30 01:21:06;;;;;;;3.28;2.97;;;;;25.20;100577.00;;;;2088091;28;20213;-52
2022/07/30 01:22:25;;;;;;;3.30;3.00;;;;;25.20;100595.00;;;;2087584;28;20225;-53
2022/07/30 01:23:38;;;;;;;3.08;2.78;;;;;25.20;100579.00;;;;2087580;28;20631;-53
2022/07/30 01:24:43;;;;;;;3.15;2.85;;;;;25.20;100579.00;;;;2077879;28;20225;-53
2022/07/30 01:25:50;;;;;;;3.45;3.15;;;;;25.20;100583.00;;;;2071233;28;20221;-52
2022/07/30 01:26:51;;;;;;;3.30;3.00;;;;;25.20;100580.00;;;;2079604;28;20225;-53
2022/07/30 01:27:53;;;;;;;3.27;2.80;;;;;25.20;100577.00;;;;2078206;28;26083;-53
2022/07/30 01:28:54;;;;;;;3.25;2.97;;;;;25.20;100592.00;;;;2086897;28;20217;-53
2022/07/30 01:29:54;;;;;;;3.20;2.93;;;;;25.20;100573.00;;;;2086268;28;20726;-52
2022/07/30 01:30:54;;;;;;;4.83;2.63;;;;;25.20;100573.00;;;;2086730;28;20742;-53
2022/07/30 01:31:58;;;;;;;3.20;2.90;;;;;25.20;100573.00;;;;2086824;28;20216;-52
2022/07/30 01:32:59;;;;;;;2.72;2.53;;;;;25.20;100506.00;;;;2086466;28;20746;-52
2022/07/30 01:33:59;;;;;;;2.77;2.57;;;;;25.20;100572.00;;;;2086926;28;20216;-52
2022/07/30 01:34:59;;;;;;;2.70;2.50;;;;;25.20;100436.00;;;;2082487;28;20678;-53
2022/07/30 01:36:00;;;;;;;2.60;2.40;;;;;25.20;100551.00;;;;2083560;28;20744;-53
2022/07/30 01:37:00;;;;;;;2.50;2.30;;;;;25.20;100581.00;;;;2081890;28;20682;-52
2022/07/30 01:38:00;;;;;;;3.20;2.90;;;;;25.20;100577.00;;;;2076137;28;20652;-53
2022/07/30 01:39:01;;;;;;;2.80;2.60;;;;;25.20;100573.00;;;;2078933;28;20662;-52
2022/07/30 01:40:01;;;;;;;3.00;2.80;;;;;25.20;100572.00;;;;2079313;28;20229;-52
2022/07/30 01:41:02;;;;;;;2.93;2.70;;;;;25.20;100576.00;;;;2079031;28;20217;-52
2022/07/30 01:42:05;;;;;;;3.07;2.77;;;;;25.20;100530.00;;;;2070845;28;20245;-52
2022/07/30 01:43:06;;;;;;;2.70;2.50;;;;;25.20;100567.00;;;;2078855;28;20228;-53
2022/07/30 01:44:07;;;;;;;3.20;2.90;;;;;25.20;100572.00;;;;2079105;28;20213;-53
2022/07/30 01:45:07;;;;;;;2.70;2.50;;;;;25.20;100577.00;;;;2078878;28;20214;-53
2022/07/30 01:46:08;;;;;;;3.17;2.87;;;;;25.20;100572.00;;;;2079175;28;20307;-53
2022/07/30 01:47:09;;;;;;;3.20;2.90;;;;;25.20;100553.00;;;;2070981;28;20461;-53
2022/07/30 01:48:10;;;;;;;2.53;2.33;;;;;25.20;100583.00;;;;2081617;28;20324;-53
2022/07/30 01:49:10;;;;;;;3.13;2.83;;;;;25.20;100582.00;;;;2079308;28;20233;-53
2022/07/30 01:50:14;;;;;;;2.87;2.67;;;;;25.20;100582.00;;;;2083236;28;20210;-53
2022/07/30 01:51:14;;;;;;;3.20;2.90;;;;;25.20;100580.00;;;;2079055;28;20221;-53
2022/07/30 01:52:15;;;;;;;3.33;3.03;;;;;25.20;100582.00;;;;2069890;28;20218;-52
2022/07/30 01:53:18;;;;;;;3.30;3.00;;;;;25.20;100586.00;;;;2069043;28;20210;-52
2022/07/30 01:54:18;;;;;;;3.38;2.75;;;;;25.20;100628.00;;;;2079526;28;20626;-53
2022/07/30 01:55:33;;;;;;;3.53;3.20;;;;;25.20;100578.00;;;;2079160;28;20225;-53
2022/07/30 01:56:34;;;;;;;3.17;2.88;;;;;25.20;100591.00;;;;2081151;28;20628;-52
2022/07/30 01:57:34;;;;;;;2.83;2.63;;;;;25.20;100591.00;;;;2070288;28;20222;-52
2022/07/30 01:58:35;;;;;;;2.70;2.50;;;;;25.20;100589.00;;;;2070495;28;20206;-52
2022/07/30 01:59:35;;;;;;;2.70;2.50;;;;;25.20;100601.00;;;;2071075;28;20225;-53
2022/07/30 02:00:37;;;;;;;2.77;2.57;;;;;25.20;100576.00;;;;2079364;28;20900;-52
2022/07/30 02:01:38;;;;;;;2.80;2.47;;;;;25.20;100578.00;;;;2078410;28;20769;-53
2022/07/30 02:02:40;;;;;;;3.03;2.60;;;;;25.20;100588.00;;;;2072635;28;20277;-53
2022/07/30 02:03:40;;;;;;;3.65;2.88;;;;;25.20;100579.00;;;;2079214;28;20213;-52
2022/07/30 02:04:40;;;;;;;2.57;2.37;;;;;25.20;100576.00;;;;2079175;28;20217;-53
2022/07/30 02:05:42;;;;;;;2.67;2.47;;;;;25.20;100574.00;;;;2079075;28;20593;-53
2022/07/30 02:06:45;;;;;;;3.08;2.78;;;;;25.20;100580.00;;;;2087560;28;20228;-52
2022/07/30 02:07:54;;;;;;;2.85;2.65;;;;;25.20;100590.00;;;;2078535;28;20212;-52
2022/07/30 02:08:57;;;;;;;3.05;2.85;;;;;25.20;100547.00;;;;2080242;28;20221;-53
2022/07/30 02:10:00;;;;;;;2.53;2.33;;;;;25.20;100580.00;;;;2086773;28;20216;-52
2022/07/30 02:11:12;;;;;;;2.75;2.55;;;;;25.20;100589.00;;;;2063662;28;20643;-53
2022/07/30 02:12:27;;;;;;;2.70;2.50;;;;;25.20;100629.00;;;;2073706;28;20222;-53
2022/07/30 02:13:27;;;;;;;2.55;2.15;;;;;25.20;100597.00;;;;2072729;28;20218;-52
2022/07/30 02:14:29;;;;;;;2.93;2.67;;;;;25.20;100594.00;;;;2072458;28;20225;-52
2022/07/30 02:15:45;;;;;;;3.20;2.90;;;;;25.20;100550.00;;;;2071426;28;20218;-52
2022/07/30 02:16:48;;;;;;;2.80;2.60;;;;;24.70;100596.00;;;;2072918;28;20218;-53
2022/07/30 02:17:58;;;;;;;3.10;2.90;;;;;25.20;100596.00;;;;2078490;28;20221;-53
2022/07/30 02:19:14;;;;;;;2.70;2.35;;;;;25.20;100594.00;;;;2087142;28;20609;-53
2022/07/30 02:20:15;;;;;;;3.15;2.88;;;;;25.20;100567.00;;;;2087245;28;20315;-53
2022/07/30 02:21:16;;;;;;;2.70;2.50;;;;;25.20;100602.00;;;;2080964;28;20640;-53
2022/07/30 02:22:16;;;;;;;3.33;3.03;;;;;25.20;100601.00;;;;2063015;28;20207;-53
2022/07/30 02:23:17;;;;;;;2.80;2.60;;;;;25.20;100598.00;;;;2062476;28;20234;-52
2022/07/30 02:24:19;;;;;;;2.57;2.37;;;;;25.20;100625.00;;;;2062128;28;20210;-53
2022/07/30 02:25:19;;;;;;;2.85;2.55;;;;;25.20;100597.00;;;;2070433;28;20233;-53
2022/07/30 02:26:21;;;;;;;2.97;2.67;;;;;25.20;100589.00;;;;2078435;28;20308;-53
2022/07/30 02:27:25;;;;;;;2.85;2.65;;;;;25.20;100596.00;;;;2074971;28;20219;-52
2022/07/30 02:28:26;;;;;;;3.13;2.92;;;;;25.20;100559.00;;;;2079373;28;20210;-53
2022/07/30 02:29:26;;;;;;;2.83;2.60;;;;;25.20;100597.00;;;;2085052;28;20212;-53
2022/07/30 02:30:29;;;;;;;2.43;2.23;;;;;25.20;100601.00;;;;2086896;28;20278;-53
2022/07/30 02:31:30;;;;;;;2.55;2.35;;;;;25.10;100602.00;;;;2088165;28;20225;-52
2022/07/30 02:32:33;;;;;;;2.80;2.53;;;;;25.20;100593.00;;;;2087125;28;20228;-52
2022/07/30 02:33:36;;;;;;;2.70;2.50;;;;;25.20;100616.00;;;;2087117;28;20217;-52
2022/07/30 02:34:37;;;;;;;2.33;2.13;;;;;25.20;100606.00;;;;2086615;28;20210;-52
2022/07/30 02:35:38;;;;;;;3.10;2.80;;;;;25.20;100577.00;;;;2076449;28;20280;-53
2022/07/30 02:36:38;;;;;;;3.10;2.80;;;;;25.20;100603.00;;;;2079052;28;20367;-52
2022/07/30 02:37:39;;;;;;;2.57;2.37;;;;;25.10;100567.00;;;;2077924;28;20225;-52
2022/07/30 02:38:39;;;;;;;3.00;2.80;;;;;25.20;100602.00;;;;2078866;28;20659;-52
2022/07/30 02:39:41;;;;;;;2.77;2.47;;;;;25.10;100610.00;;;;2078748;28;20324;-52
2022/07/30 02:40:42;;;;;;;2.63;2.42;;;;;25.20;100599.00;;;;2070952;28;20887;-56
2022/07/30 02:41:42;;;;;;;3.03;2.83;;;;;25.10;100602.00;;;;2062933;28;20211;-53
2022/07/30 02:42:45;;;;;;;3.23;2.93;;;;;25.20;100606.00;;;;2068311;28;20276;-53
2022/07/30 02:43:45;;;;;;;2.90;2.70;;;;;25.10;100613.00;;;;2079458;28;20214;-53
2022/07/30 02:44:45;;;;;;;2.50;2.30;;;;;25.20;100614.00;;;;2086124;28;20229;-52
2022/07/30 02:45:46;;;;;;;3.37;2.63;;;;;25.10;100583.00;;;;2086094;28;20216;-53
2022/07/30 02:46:46;;;;;;;3.17;2.87;;;;;25.10;100609.00;;;;2062907;28;20211;-52
2022/07/30 02:47:50;;;;;;;2.70;2.50;;;;;25.10;100579.00;;;;2070227;28;20578;-53
2022/07/30 02:48:50;;;;;;;3.05;2.85;;;;;25.10;100607.00;;;;2070000;28;20210;-53
2022/07/30 02:49:50;;;;;;;2.83;2.53;;;;;25.10;100607.00;;;;2075813;28;20546;-53
2022/07/30 02:50:51;;;;;;;2.90;2.60;;;;;25.20;100564.00;;;;2078859;28;20591;-53
2022/07/30 02:51:51;;;;;;;2.83;2.63;;;;;25.20;100605.00;;;;2070886;28;20241;-53
2022/07/30 02:52:52;;;;;;;3.10;2.80;;;;;25.10;100604.00;;;;2079173;28;20840;-53
2022/07/30 02:53:52;;;;;;;2.30;2.10;;;;;25.10;100600.00;;;;2070703;28;20233;-53
2022/07/30 02:54:52;;;;;;;2.80;2.60;;;;;25.10;100610.00;;;;2076196;28;20256;-53
2022/07/30 02:55:53;;;;;;;2.70;2.50;;;;;25.10;100601.00;;;;2070713;28;20305;-53
2022/07/30 02:56:53;;;;;;;2.80;2.60;;;;;25.10;100607.00;;;;2070548;28;20202;-53
2022/07/30 02:57:53;;;;;;;2.40;2.20;;;;;25.10;100616.00;;;;2069836;28;20349;-53
2022/07/30 02:58:54;;;;;;;2.93;2.73;;;;;25.10;100614.00;;;;2078953;28;20363;-53
2022/07/30 02:59:54;;;;;;;2.70;2.50;;;;;25.10;100563.00;;;;2078907;28;20201;-53
2022/07/30 03:00:54;;;;;;;2.83;2.57;;;;;25.10;100604.00;;;;2062756;28;20226;-53
2022/07/30 03:01:55;;;;;;;2.90;2.70;;;;;25.20;100607.00;;;;2062676;28;20218;-53
2022/07/30 03:02:55;;;;;;;2.50;2.30;;;;;25.10;100596.00;;;;2067186;28;20215;-53
2022/07/30 03:03:56;;;;;;;2.57;2.37;;;;;25.10;100610.00;;;;2074587;28;20202;-53
2022/07/30 03:04:56;;;;;;;2.60;2.40;;;;;25.10;100608.00;;;;2075142;28;20218;-53
2022/07/30 03:05:57;;;;;;;3.03;2.73;;;;;25.10;100600.00;;;;2078799;28;20730;-53
2022/07/30 03:06:58;;;;;;;2.67;2.47;;;;;25.10;100610.00;;;;2061479;28;20206;-56
2022/07/30 03:07:58;;;;;;;2.50;2.30;;;;;25.10;100576.00;;;;2057869;28;20313;-53
2022/07/30 03:08:58;;;;;;;2.83;2.53;;;;;25.10;100606.00;;;;2061513;28;20263;-52
2022/07/30 03:09:59;;;;;;;2.83;2.63;;;;;25.10;100561.00;;;;2072075;28;20229;-52
2022/07/30 03:10:59;;;;;;;2.77;2.57;;;;;25.10;100611.00;;;;2071054;28;20311;-52
2022/07/30 03:11:59;;;;;;;2.73;2.53;;;;;25.10;100606.00;;;;2075947;28;20686;-52
2022/07/30 03:13:00;;;;;;;2.83;2.63;;;;;25.10;100609.00;;;;2079217;28;20611;-52
2022/07/30 03:14:01;;;;;;;2.57;2.37;;;;;25.10;100609.00;;;;2070523;28;20845;-52
2022/07/30 03:15:02;;;;;;;2.33;2.13;;;;;25.10;100610.00;;;;2074061;28;20222;-52
2022/07/30 03:16:04;;;;;;;2.80;2.60;;;;;25.10;100608.00;;;;2073827;28;20225;-53
2022/07/30 03:17:04;;;;;;;2.35;2.15;;;;;25.10;100614.00;;;;2081820;28;20451;-53
2022/07/30 03:18:04;;;;;;;2.43;2.23;;;;;25.10;100610.00;;;;2086286;28;20752;-52
2022/07/30 03:19:05;;;;;;;2.80;2.60;;;;;25.10;100612.00;;;;2086712;28;20244;-53
2022/07/30 03:20:14;;;;;;;2.40;2.20;;;;;25.10;100573.00;;;;2086892;28;20224;-53
2022/07/30 03:21:14;;;;;;;2.78;2.58;;;;;25.10;100583.00;;;;2086824;28;20208;-53
2022/07/30 03:22:16;;;;;;;2.70;2.50;;;;;25.10;100617.00;;;;2087134;28;20213;-53
2022/07/30 03:23:17;;;;;;;2.47;2.28;;;;;25.10;100588.00;;;;2078613;28;20300;-52
2022/07/30 03:24:17;;;;;;;2.83;2.63;;;;;25.10;100620.00;;;;2087596;28;20225;-53
2022/07/30 03:25:23;;;;;;;2.70;2.50;;;;;25.10;100625.00;;;;2082979;28;21061;-53
2022/07/30 03:26:23;;;;;;;2.95;2.75;;;;;25.10;100596.00;;;;2070116;28;20213;-54
2022/07/30 03:27:24;;;;;;;2.73;2.53;;;;;25.10;100611.00;;;;2053671;28;20215;-53
2022/07/30 03:28:24;;;;;;;3.10;2.80;;;;;25.10;100626.00;;;;2077000;28;20238;-53
2022/07/30 03:29:25;;;;;;;2.60;2.40;;;;;25.10;100593.00;;;;2078631;28;20260;-53
2022/07/30 03:30:25;;;;;;;2.60;2.40;;;;;25.10;100627.00;;;;2066640;28;20221;-53
2022/07/30 03:31:25;;;;;;;3.17;2.97;;;;;25.10;100623.00;;;;2062579;28;20286;-53
2022/07/30 03:32:26;;;;;;;3.50;3.20;;;;;25.10;100623.00;;;;2069138;28;20236;-53
2022/07/30 03:33:26;;;;;;;2.63;2.43;;;;;25.10;100619.00;;;;2078741;28;20244;-53
2022/07/30 03:34:26;;;;;;;2.70;2.50;;;;;25.10;100617.00;;;;2080069;28;20229;-53
2022/07/30 03:35:27;;;;;;;2.80;2.60;;;;;25.10;100628.00;;;;2086757;28;20665;-53
2022/07/30 03:36:27;;;;;;;2.90;2.60;;;;;25.10;100607.00;;;;2086840;28;20295;-53
2022/07/30 03:37:28;;;;;;;2.90;2.70;;;;;25.10;100624.00;;;;2085578;28;20217;-53
2022/07/30 03:38:28;;;;;;;2.77;2.57;;;;;25.10;100624.00;;;;2074140;28;20268;-53
2022/07/30 03:39:28;;;;;;;2.87;2.67;;;;;25.10;100626.00;;;;2075747;28;20245;-53
2022/07/30 03:40:29;;;;;;;2.77;2.50;;;;;25.10;100621.00;;;;2068267;28;20218;-53
2022/07/30 03:41:29;;;;;;;2.20;2.00;;;;;25.10;100594.00;;;;2062981;28;20241;-52
2022/07/30 03:42:30;;;;;;;2.60;2.40;;;;;25.10;100626.00;;;;2070134;28;20218;-53
2022/07/30 03:43:30;;;;;;;2.63;2.43;;;;;25.10;100627.00;;;;2071865;28;20284;-53
2022/07/30 03:44:31;;;;;;;2.67;2.47;;;;;25.10;100632.00;;;;2086436;28;20451;-53
2022/07/30 03:45:31;;;;;;;2.70;2.47;;;;;25.10;100580.00;;;;2078359;28;20213;-53
2022/07/30 03:46:31;;;;;;;2.70;2.50;;;;;25.10;100635.00;;;;2070264;28;20237;-53
2022/07/30 03:47:32;;;;;;;2.77;2.57;;;;;25.10;100626.00;;;;2076703;28;20228;-53
2022/07/30 03:48:33;;;;;;;2.40;2.20;;;;;25.10;100640.00;;;;2069908;28;20676;-53
2022/07/30 03:49:33;;;;;;;2.77;2.57;;;;;25.10;100659.00;;;;2069776;28;20218;-53
2022/07/30 03:50:36;;;;;;;3.40;3.10;;;;;25.10;100635.00;;;;2086476;28;20217;-53
2022/07/30 03:51:37;;;;;;;2.83;2.63;;;;;25.10;100618.00;;;;2086499;28;20243;-53
2022/07/30 03:52:39;;;;;;;2.80;2.60;;;;;25.10;100629.00;;;;2086606;28;20592;-53
2022/07/30 03:53:39;;;;;;;2.45;2.25;;;;;25.10;100622.00;;;;2087341;28;20736;-53
2022/07/30 03:54:40;;;;;;;2.57;2.37;;;;;25.10;100612.00;;;;2079174;28;20237;-53
2022/07/30 03:55:41;;;;;;;3.23;2.93;;;;;25.10;100626.00;;;;2077663;28;20228;-53
2022/07/30 03:56:41;;;;;;;2.90;2.70;;;;;25.10;100639.00;;;;2070266;28;20644;-52
2022/07/30 03:57:41;;;;;;;2.80;2.60;;;;;25.10;100627.00;;;;2061105;28;20473;-53
2022/07/30 03:58:42;;;;;;;2.43;2.23;;;;;25.10;100630.00;;;;2078279;28;20304;-53
2022/07/30 03:59:42;;;;;;;2.77;2.57;;;;;25.10;100627.00;;;;2079433;28;20282;-52
2022/07/30 04:00:46;;;;;;;2.70;2.50;;;;;25.10;100639.00;;;;2086546;28;20217;-52
2022/07/30 04:01:46;;;;;;;2.85;2.40;;;;;25.10;100639.00;;;;2078332;28;20217;-53
2022/07/30 04:02:46;;;;;;;3.07;2.77;;;;;25.10;100641.00;;;;2078416;28;20212;-52
2022/07/30 04:03:47;;;;;;;2.40;2.20;;;;;25.10;100629.00;;;;2087121;28;20224;-52
2022/07/30 04:04:47;;;;;;;2.70;2.50;;;;;25.10;100639.00;;;;2086489;28;20224;-52
2022/07/30 04:05:47;;;;;;;2.50;2.30;;;;;25.10;100642.00;;;;2086592;28;20236;-52
2022/07/30 04:06:47;;;;;;;3.10;2.73;;;;;25.10;100642.00;;;;2086533;28;20924;-52
2022/07/30 04:07:48;;;;;;;2.90;2.70;;;;;25.10;100641.00;;;;2086028;28;20756;-52
2022/07/30 04:08:48;;;;;;;2.83;2.63;;;;;25.10;100664.00;;;;2087291;28;20729;-52
2022/07/30 04:09:49;;;;;;;2.70;2.50;;;;;25.10;100644.00;;;;2086757;28;20720;-52
2022/07/30 04:10:49;;;;;;;2.63;2.43;;;;;25.10;100642.00;;;;2086946;28;20749;-52
2022/07/30 04:11:49;;;;;;;2.97;2.70;;;;;25.10;100643.00;;;;2087061;28;20250;-52
2022/07/30 04:12:50;;;;;;;2.40;2.20;;;;;25.10;100631.00;;;;2087077;28;20209;-52
2022/07/30 04:13:50;;;;;;;2.73;2.53;;;;;25.10;100636.00;;;;2087146;28;20232;-52
2022/07/30 04:14:52;;;;;;;2.33;2.13;;;;;25.10;100644.00;;;;2087092;28;20208;-53
2022/07/30 04:16:06;;;;;;;3.23;2.93;;;;;25.10;100650.00;;;;2087144;28;20231;-52
2022/07/30 04:17:46;;;;;;;2.42;2.22;;;;;25.10;100676.00;;;;2085640;28;20475;-52
2022/07/30 04:18:49;;;;;;;2.80;2.60;;;;;25.10;100641.00;;;;2086128;28;20267;-53
2022/07/30 04:19:56;;;;;;;2.42;2.22;;;;;25.10;100647.00;;;;2077923;28;20260;-52
2022/07/30 04:20:56;;;;;;;2.60;2.25;;;;;25.10;100647.00;;;;2077743;28;20774;-53
2022/07/30 04:21:57;;;;;;;2.60;2.40;;;;;25.10;100645.00;;;;2078119;28;20206;-53
2022/07/30 04:22:57;;;;;;;2.70;2.50;;;;;25.10;100648.00;;;;2074179;28;20737;-53
2022/07/30 04:23:58;;;;;;;2.90;2.70;;;;;25.10;100616.00;;;;2069945;28;20214;-53
2022/07/30 04:24:59;;;;;;;2.60;2.40;;;;;25.10;100430.00;;;;2069822;28;20214;-53
2022/07/30 04:26:00;;;;;;;2.80;2.42;;;;;25.10;100647.00;;;;2070137;28;20222;-53
2022/07/30 04:27:00;;;;;;;2.53;2.33;;;;;25.10;100650.00;;;;2078180;28;20238;-53
2022/07/30 04:28:01;;;;;;;2.73;2.53;;;;;25.10;100655.00;;;;2076850;28;20843;-52
2022/07/30 04:29:05;;;;;;;2.53;2.33;;;;;25.10;100654.00;;;;2069733;28;20218;-53
2022/07/30 04:30:06;;;;;;;2.45;2.25;;;;;25.10;100647.00;;;;2069107;28;20222;-52
2022/07/30 04:31:06;;;;;;;2.70;2.50;;;;;25.10;100658.00;;;;2077929;28;20233;-52
2022/07/30 04:32:08;;;;;;;3.00;2.50;;;;;25.10;100654.00;;;;2072973;28;20519;-52
2022/07/30 04:33:08;;;;;;;2.80;2.60;;;;;25.10;100655.00;;;;2077924;28;20218;-53
2022/07/30 04:34:12;;;;;;;2.40;2.20;;;;;25.10;100660.00;;;;2078830;28;20226;-52
2022/07/30 04:35:12;;;;;;;2.60;2.40;;;;;25.10;100664.00;;;;2082699;28;20217;-53
2022/07/30 04:36:12;;;;;;;3.00;2.80;;;;;25.10;100657.00;;;;2086149;28;20272;-53
2022/07/30 04:37:14;;;;;;;2.30;2.10;;;;;25.10;100665.00;;;;2086694;28;20209;-52
2022/07/30 04:38:15;;;;;;;2.30;2.10;;;;;25.10;100673.00;;;;2086444;28;20213;-52
2022/07/30 04:39:15;;;;;;;2.93;2.73;;;;;25.10;100666.00;;;;2086630;28;20216;-52
2022/07/30 04:40:15;;;;;;;2.67;2.47;;;;;25.10;100672.00;;;;2086856;28;20221;-52
2022/07/30 04:41:16;;;;;;;2.47;2.27;;;;;25.10;100669.00;;;;2086512;28;20221;-53
2022/07/30 04:42:16;;;;;;;2.77;2.57;;;;;25.10;100670.00;;;;2086274;28;20254;-52
2022/07/30 04:43:16;;;;;;;2.40;2.20;;;;;25.10;100667.00;;;;2086789;28;20220;-53
2022/07/30 04:44:17;;;;;;;2.83;2.07;;;;;25.10;100674.00;;;;2086853;28;20216;-52
2022/07/30 04:45:19;;;;;;;2.78;2.38;;;;;25.10;100672.00;;;;2086221;28;20213;-52
2022/07/30 04:46:19;;;;;;;2.60;2.40;;;;;25.10;100673.00;;;;2086202;28;20244;-52
2022/07/30 04:47:19;;;;;;;2.83;2.57;;;;;25.10;100675.00;;;;2085887;28;20279;-52
2022/07/30 04:48:20;;;;;;;2.70;2.50;;;;;25.10;100670.00;;;;2086793;28;20221;-52
2022/07/30 04:49:20;;;;;;;2.40;2.20;;;;;25.10;100670.00;;;;2079192;28;20232;-52
2022/07/30 04:50:22;;;;;;;2.77;2.57;;;;;25.10;100541.00;;;;2083054;28;20351;-52
2022/07/30 04:51:27;;;;;;;2.67;2.47;;;;;25.10;100676.00;;;;2085008;28;20303;-52
2022/07/30 04:52:28;;;;;;;2.47;2.28;;;;;25.10;100682.00;;;;2085598;28;20644;-53
2022/07/30 04:53:28;;;;;;;2.63;2.43;;;;;25.10;100686.00;;;;2085480;28;20205;-52
2022/07/30 04:54:36;;;;;;;2.90;2.70;;;;;25.10;100640.00;;;;2076509;28;20229;-52
2022/07/30 04:55:39;;;;;;;2.85;2.60;;;;;25.10;100649.00;;;;2069815;28;20245;-53
2022/07/30 04:56:40;;;;;;;2.87;2.57;;;;;25.10;100684.00;;;;2077177;28;20221;-53
2022/07/30 04:57:41;;;;;;;2.77;2.50;;;;;25.10;100680.00;;;;2076479;28;20460;-52
2022/07/30 04:58:42;;;;;;;2.80;2.50;;;;;25.10;100680.00;;;;2085588;28;20759;-53
2022/07/30 04:59:42;;;;;;;2.57;2.37;;;;;25.10;100686.00;;;;2085137;28;20212;-53
2022/07/30 05:00:43;;;;;;;2.73;2.50;;;;;25.10;100645.00;;;;2069005;28;20742;-53
2022/07/30 05:01:45;;;;;;;2.50;2.30;;;;;25.10;100687.00;;;;2077464;28;20802;-52
2022/07/30 05:02:45;;;;;;;2.85;2.65;;;;;25.10;100654.00;;;;2077877;28;20209;-53
2022/07/30 05:03:46;;;;;;;2.50;2.30;;;;;25.10;100659.00;;;;2079545;28;20259;-53
2022/07/30 05:04:46;;;;;;;3.37;2.30;;;;;25.10;100677.00;;;;2077483;28;20220;-52
2022/07/30 05:05:47;;;;;;;2.60;2.40;;;;;25.10;100686.00;;;;2077508;28;20202;-53